Time;durP1;ratioP1;P1;durP2;ratioP2;P2;SDS_P1;SDS_P2;PMS_P1;PMS_P2;Temp;Humidity;BMP_temperature;BMP_pressure;BME280_temperature;BME280_humidity;BME280_pressure;Samples;Min_cycle;Max_cycle;Signal;HPM_P1;HPM_P2
2021/07/29 00:00:33;;;;;;;5.40;4.03;;;;;;;16.58;76.57;99125.91;5032599;28;20041;-72
2021/07/29 00:02:59;;;;;;;6.45;4.35;;;;;;;16.56;77.09;99138.50;5032818;28;20095;-72
2021/07/29 00:05:25;;;;;;;9.13;4.40;;;;;;;16.53;77.66;99134.28;5032097;28;20061;-71
2021/07/29 00:07:52;;;;;;;5.88;3.60;;;;;;;16.57;78.70;99137.53;5031324;28;20036;-72
2021/07/29 00:10:18;;;;;;;5.93;3.45;;;;;;;16.56;77.80;99138.50;5032718;28;20069;-71
2021/07/29 00:12:43;;;;;;;4.90;3.50;;;;;;;16.55;77.34;99137.66;5032571;28;20049;-71
2021/07/29 00:15:14;;;;;;;5.63;4.53;;;;;;;16.54;76.82;99141.31;5031372;28;20080;-72
2021/07/29 00:20:12;;;;;;;8.70;5.32;;;;;;;16.45;76.46;99153.56;5032205;28;20033;-73
2021/07/29 00:22:38;;;;;;;9.60;5.13;;;;;;;16.43;77.78;99149.34;5032381;28;20160;-73
2021/07/29 00:25:07;;;;;;;5.93;4.00;;;;;;;16.36;77.85;99146.34;5032047;28;20113;-73
2021/07/29 00:27:34;;;;;;;8.35;5.25;;;;;;;16.33;78.17;99159.91;5031555;28;20030;-73
2021/07/29 00:29:59;;;;;;;7.90;4.82;;;;;;;16.20;78.40;99153.91;5031857;28;20037;-72
2021/07/29 00:32:25;;;;;;;7.75;4.78;;;;;;;16.07;79.39;99141.63;5032536;28;20026;-73
2021/07/29 00:34:50;;;;;;;7.72;4.78;;;;;;;16.01;79.87;99142.13;5033394;28;20037;-73
2021/07/29 00:37:15;;;;;;;7.55;4.93;;;;;;;15.95;78.77;99134.66;5033784;28;20032;-72
2021/07/29 00:39:41;;;;;;;5.88;4.47;;;;;;;15.93;79.17;99136.59;5033556;28;20417;-73
2021/07/29 00:42:06;;;;;;;7.10;4.95;;;;;;;15.93;78.89;99138.41;5032338;28;20100;-73
2021/07/29 00:44:34;;;;;;;5.93;4.10;;;;;;;15.94;79.08;99135.63;5032447;28;20497;-73
2021/07/29 00:47:01;;;;;;;7.20;4.38;;;;;;;15.95;78.39;99137.31;5031859;28;20038;-73
2021/07/29 00:49:26;;;;;;;6.22;4.22;;;;;;;15.92;78.26;99126.09;5031947;28;20068;-74
2021/07/29 00:51:52;;;;;;;5.28;4.20;;;;;;;15.93;78.53;99123.31;5031897;28;20046;-73
2021/07/29 00:54:17;;;;;;;9.40;5.43;;;;;;;15.88;78.07;99123.69;5031665;28;20037;-73
2021/07/29 00:56:44;;;;;;;8.82;4.50;;;;;;;15.89;78.99;99120.03;5031395;28;20402;-74
2021/07/29 00:59:12;;;;;;;6.90;5.25;;;;;;;15.84;79.05;99110.75;5027426;28;20440;-72
2021/07/29 01:01:38;;;;;;;8.23;5.53;;;;;;;15.81;79.13;99116.34;5008379;28;20040;-73
2021/07/29 01:04:03;;;;;;;6.00;4.65;;;;;;;15.77;79.65;99123.69;5030094;28;20034;-73
2021/07/29 01:06:29;;;;;;;6.30;4.68;;;;;;;15.76;79.09;99110.56;5030509;28;20496;-73
2021/07/29 01:09:10;;;;;;;6.88;4.50;;;;;;;15.77;79.27;99122.84;5031222;28;20033;-75
2021/07/29 01:11:43;;;;;;;6.72;5.18;;;;;;;15.75;79.43;99111.50;5030940;28;20374;-74
2021/07/29 01:14:10;;;;;;;6.55;4.57;;;;;;;15.73;79.64;99113.47;5030959;28;20068;-72
2021/07/29 01:16:36;;;;;;;6.25;4.53;;;;;;;15.73;79.52;99109.00;5030553;28;20029;-73
2021/07/29 01:19:02;;;;;;;11.82;6.05;;;;;;;15.71;80.15;99112.75;5030600;28;20512;-73
2021/07/29 01:21:31;;;;;;;8.35;4.60;;;;;;;15.72;80.03;99111.75;5030107;28;20033;-73
2021/07/29 01:23:57;;;;;;;5.88;4.57;;;;;;;15.71;79.92;99108.28;5030483;28;20094;-73
2021/07/29 01:26:23;;;;;;;12.43;5.47;;;;;;;15.71;79.64;99113.59;5029945;28;20080;-74
2021/07/29 01:28:49;;;;;;;7.25;5.78;;;;;;;15.74;80.39;99108.00;5028978;28;20033;-73
2021/07/29 01:31:15;;;;;;;9.60;4.95;;;;;;;15.77;79.09;99104.25;5029480;28;20033;-72
2021/07/29 01:33:40;;;;;;;7.00;4.22;;;;;;;15.79;78.95;99102.31;5029880;28;20064;-72
2021/07/29 01:36:06;;;;;;;10.75;4.90;;;;;;;15.79;79.18;99097.00;5029164;28;20099;-73
2021/07/29 01:38:32;;;;;;;12.48;5.80;;;;;;;15.82;79.60;99102.06;5034008;28;20083;-72
2021/07/29 01:41:02;;;;;;;8.55;4.25;;;;;;;15.82;79.02;99097.59;5015302;28;20041;-72
2021/07/29 01:43:27;;;;;;;10.25;6.10;;;;;;;15.81;79.42;99103.88;5008938;28;20254;-72
2021/07/29 01:45:52;;;;;;;5.80;4.22;;;;;;;15.79;79.21;99105.81;5025144;28;20049;-74
2021/07/29 01:48:18;;;;;;;10.65;4.85;;;;;;;15.81;79.31;99105.72;5032131;28;20041;-73
2021/07/29 01:50:43;;;;;;;11.10;4.97;;;;;;;15.78;79.73;99100.66;5030136;28;20087;-72
2021/07/29 01:53:10;;;;;;;6.57;4.80;;;;;;;15.76;78.86;99105.25;5029946;28;20041;-73
2021/07/29 01:55:39;;;;;;;9.20;4.97;;;;;;;15.75;79.45;99103.53;5029133;28;20561;-72
2021/07/29 01:58:05;;;;;;;7.63;4.25;;;;;;;15.76;79.36;99107.91;5028548;28;20374;-75
2021/07/29 02:00:30;;;;;;;9.40;5.03;;;;;;;15.75;79.34;99106.19;5028219;28;20551;-73
2021/07/29 02:02:56;;;;;;;10.55;5.75;;;;;;;15.68;80.08;99112.00;5028516;28;20146;-72
2021/07/29 02:05:21;;;;;;;9.20;5.13;;;;;;;15.71;79.95;99112.75;5030194;28;20053;-74
2021/07/29 02:07:46;;;;;;;7.10;4.57;;;;;;;15.73;80.11;99108.16;5029145;28;20037;-74
2021/07/29 02:10:12;;;;;;;7.55;3.95;;;;;;;15.75;79.40;99116.81;5029594;28;20045;-71
2021/07/29 02:12:39;;;;;;;6.35;4.53;;;;;;;15.76;79.68;99113.22;5029449;28;20034;-74
2021/07/29 02:15:05;;;;;;;7.85;4.40;;;;;;;15.74;78.97;99120.47;5027495;28;20048;-71
2021/07/29 02:17:31;;;;;;;10.05;4.38;;;;;;;15.70;77.41;99113.69;5027949;28;20072;-74
2021/07/29 02:19:57;;;;;;;7.35;3.97;;;;;;;15.72;77.34;99120.56;5029476;28;20069;-73
2021/07/29 02:22:22;;;;;;;5.75;4.35;;;;;;;15.76;77.28;99116.72;5030127;28;20146;-71
2021/07/29 02:24:47;;;;;;;10.07;4.15;;;;;;;15.75;76.81;99111.50;5029704;28;20041;-73
2021/07/29 02:27:13;;;;;;;6.75;4.32;;;;;;;15.78;76.72;99111.28;5027447;28;20029;-74
2021/07/29 02:29:39;;;;;;;8.85;3.95;;;;;;;15.79;76.79;99110.28;5028960;28;20030;-70
2021/07/29 02:32:05;;;;;;;6.35;3.70;;;;;;;15.78;76.59;99112.13;5028851;28;20130;-71
2021/07/29 02:34:30;;;;;;;7.55;3.95;;;;;;;15.79;75.90;99113.78;5029033;28;20134;-71
2021/07/29 02:36:55;;;;;;;7.18;3.30;;;;;;;15.78;75.23;99120.09;5028945;28;20044;-71
2021/07/29 02:39:21;;;;;;;5.50;3.60;;;;;;;15.79;74.63;99113.78;5029533;28;20404;-70
2021/07/29 02:41:46;;;;;;;6.47;3.35;;;;;;;15.82;74.78;99113.53;5027331;28;20045;-73
2021/07/29 02:44:12;;;;;;;5.55;3.35;;;;;;;15.79;73.85;99111.13;5029099;28;20405;-72
2021/07/29 02:46:38;;;;;;;7.65;3.55;;;;;;;15.80;73.90;99119.94;5029026;28;20033;-73
2021/07/29 02:49:04;;;;;;;4.70;2.75;;;;;;;15.78;73.68;99111.28;5029780;28;20033;-73
2021/07/29 02:51:29;;;;;;;9.13;3.85;;;;;;;15.76;72.92;99114.06;5030175;28;20033;-72
2021/07/29 02:53:54;;;;;;;5.07;3.33;;;;;;;15.78;73.16;99113.94;5029371;28;20050;-72
2021/07/29 02:56:20;;;;;;;8.35;3.05;;;;;;;15.77;73.43;99121.03;5029398;28;20033;-73
2021/07/29 02:58:47;;;;;;;8.30;3.50;;;;;;;15.76;73.44;99114.06;5028923;28;20041;-71
2021/07/29 03:01:13;;;;;;;6.75;3.65;;;;;;;15.76;73.42;99118.53;5029143;28;20112;-72
2021/07/29 03:03:38;;;;;;;7.13;3.55;;;;;;;15.74;73.96;99123.13;5028387;28;20108;-72
2021/07/29 03:06:04;;;;;;;5.97;3.80;;;;;;;15.73;73.00;99119.63;5029015;28;20404;-72
2021/07/29 03:08:29;;;;;;;8.38;4.00;;;;;;;15.71;73.04;99128.69;5027522;28;20041;-71
2021/07/29 03:10:58;;;;;;;5.50;2.88;;;;;;;15.70;72.71;99121.66;5028976;28;20470;-73
2021/07/29 03:13:23;;;;;;;6.72;3.78;;;;;;;15.68;72.26;99122.63;5028840;28;20460;-73
2021/07/29 03:15:49;;;;;;;5.65;3.05;;;;;;;15.70;72.22;99126.97;5029550;28;20041;-71
2021/07/29 03:18:14;;;;;;;5.30;2.78;;;;;;;15.70;72.24;99125.16;5028461;28;20033;-71
2021/07/29 03:20:41;;;;;;;5.82;3.17;;;;;;;15.72;72.48;99128.53;5027364;28;20121;-70
2021/07/29 03:23:07;;;;;;;6.43;3.22;;;;;;;15.72;71.94;99127.72;5028993;28;20064;-72
2021/07/29 03:25:33;;;;;;;7.85;3.13;;;;;;;15.73;71.75;99127.59;5028716;28;20116;-72
2021/07/29 03:27:59;;;;;;;5.78;3.22;;;;;;;15.72;71.37;99125.06;5028725;28;20060;-72
2021/07/29 03:30:24;;;;;;;6.00;3.22;;;;;;;15.71;71.55;99121.56;5031606;28;20541;-72
2021/07/29 03:32:50;;;;;;;6.53;2.70;;;;;;;15.75;71.82;99124.78;5032340;28;20111;-70
2021/07/29 03:35:15;;;;;;;5.95;2.72;;;;;;;15.72;71.56;99125.88;5032140;28;20041;-72
2021/07/29 03:37:41;;;;;;;4.85;2.72;;;;;;;15.74;71.66;99128.44;5031728;28;20113;-72
2021/07/29 03:40:07;;;;;;;6.45;2.65;;;;;;;15.72;72.27;99131.19;5009632;28;20061;-71
2021/07/29 03:42:33;;;;;;;5.18;3.40;;;;;;;15.72;71.88;99131.19;5012209;28;20061;-71
2021/07/29 03:44:59;;;;;;;5.20;3.20;;;;;;;15.71;72.39;99126.88;5011918;28;20045;-70
2021/07/29 03:47:24;;;;;;;6.20;3.40;;;;;;;15.72;72.43;99127.72;5010720;28;20083;-72
2021/07/29 03:49:50;;;;;;;5.43;3.03;;;;;;;15.68;72.89;99127.09;5012841;28;20034;-72
2021/07/29 03:52:15;;;;;;;6.32;3.33;;;;;;;15.67;72.80;99136.00;5011711;28;20084;-71
2021/07/29 03:54:41;;;;;;;4.40;2.60;;;;;;;15.65;72.78;99127.31;5010680;28;20109;-72
2021/07/29 03:57:08;;;;;;;9.18;3.67;;;;;;;15.67;73.23;99134.19;5011860;28;20117;-72
2021/07/29 03:59:35;;;;;;;6.07;3.33;;;;;;;15.71;73.06;99131.34;5012260;28;20076;-72
2021/07/29 04:02:07;;;;;;;8.00;3.38;;;;;;;15.70;73.23;99141.09;5012051;28;20057;-71
2021/07/29 04:04:33;;;;;;;8.88;4.60;;;;;;;15.69;73.45;99139.41;5010685;28;20112;-72
2021/07/29 04:06:58;;;;;;;13.10;3.80;;;;;;;15.69;73.45;99144.72;5011815;28;20121;-72
2021/07/29 04:09:23;;;;;;;7.03;3.67;;;;;;;15.65;73.16;99149.44;5011307;28;20045;-72
2021/07/29 04:11:49;;;;;;;6.13;3.58;;;;;;;15.66;72.28;99151.13;5012467;28;20137;-72
2021/07/29 04:14:14;;;;;;;7.90;3.78;;;;;;;15.66;72.99;99151.13;5011840;28;20038;-72
2021/07/29 04:16:39;;;;;;;7.40;3.63;;;;;;;15.67;72.15;99146.66;5011867;28;20120;-72
2021/07/29 04:19:05;;;;;;;5.65;2.92;;;;;;;15.70;72.06;99137.59;5010874;28;20125;-73
2021/07/29 04:21:30;;;;;;;5.10;3.92;;;;;;;15.73;71.46;99142.69;5013476;28;20490;-73
2021/07/29 04:23:55;;;;;;;6.78;4.40;;;;;;;15.73;71.61;99148.84;5013096;28;20128;-72
2021/07/29 04:26:21;;;;;;;5.18;3.13;;;;;;;15.74;71.55;99150.53;5012439;28;20596;-73
2021/07/29 04:28:46;;;;;;;6.25;3.60;;;;;;;15.73;71.58;99151.50;5012309;28;20045;-72
2021/07/29 04:31:11;;;;;;;4.22;2.88;;;;;;;15.75;71.73;99154.91;5011925;28;20038;-73
2021/07/29 04:33:37;;;;;;;9.77;3.47;;;;;;;15.78;71.55;99154.63;5011249;28;20069;-72
2021/07/29 04:36:05;;;;;;;5.45;3.05;;;;;;;15.77;71.38;99158.25;5011235;28;20120;-72
2021/07/29 04:38:32;;;;;;;7.35;3.13;;;;;;;15.75;70.95;99151.38;5011099;28;20112;-71
2021/07/29 04:41:06;;;;;;;13.20;4.05;;;;;;;15.74;70.18;99160.31;5010540;28;20038;-73
2021/07/29 04:43:32;;;;;;;8.27;3.13;;;;;;;15.70;70.03;99164.19;5011420;28;20053;-72
2021/07/29 04:46:02;;;;;;;7.57;3.13;;;;;;;15.73;70.21;99163.97;5013383;28;20548;-74
2021/07/29 04:48:28;;;;;;;6.60;2.92;;;;;;;15.72;69.83;99162.25;5011312;28;20034;-73
2021/07/29 04:50:54;;;;;;;5.55;2.70;;;;;;;15.72;69.52;99167.56;5012242;28;20172;-73
2021/07/29 04:53:19;;;;;;;8.32;2.80;;;;;;;15.74;69.51;99158.50;5011636;28;20088;-73
2021/07/29 04:55:44;;;;;;;8.05;3.05;;;;;;;15.74;69.43;99160.31;5011027;28;20034;-72
2021/07/29 04:58:11;;;;;;;14.15;3.63;;;;;;;15.75;69.21;99169.97;5010618;28;20080;-72
2021/07/29 05:00:36;;;;;;;6.57;3.10;;;;;;;15.72;68.80;99170.22;5011062;28;20378;-71
2021/07/29 05:03:01;;;;;;;12.57;4.43;;;;;;;15.73;69.08;99171.94;5010850;28;20038;-72
2021/07/29 05:05:26;;;;;;;7.60;3.05;;;;;;;15.74;68.75;99168.28;5011018;28;20048;-72
2021/07/29 05:07:52;;;;;;;7.82;3.25;;;;;;;15.71;67.98;99172.03;5011059;28;20444;-71
2021/07/29 05:10:18;;;;;;;8.65;3.20;;;;;;;15.71;67.68;99173.88;5009204;28;20049;-72
2021/07/29 05:12:43;;;;;;;8.65;3.38;;;;;;;15.73;67.80;99171.94;5010893;28;20034;-72
2021/07/29 05:15:09;;;;;;;5.93;2.42;;;;;;;15.74;67.44;99179.75;5010898;28;20037;-70
2021/07/29 05:17:34;;;;;;;7.30;3.33;;;;;;;15.75;67.72;99185.91;5009161;28;20029;-73
2021/07/29 05:19:59;;;;;;;7.95;3.67;;;;;;;15.73;67.66;99180.75;5010491;28;20038;-73
2021/07/29 05:22:25;;;;;;;6.13;3.00;;;;;;;15.80;67.48;99183.72;5011573;28;20508;-72
2021/07/29 05:24:50;;;;;;;7.63;3.22;;;;;;;15.77;67.38;99190.13;5010900;28;20042;-72
2021/07/29 05:27:15;;;;;;;9.88;3.53;;;;;;;15.80;68.09;99189.91;5010585;28;20042;-72
2021/07/29 05:29:41;;;;;;;7.05;2.90;;;;;;;15.77;67.52;99197.28;5010538;28;20034;-72
2021/07/29 05:32:07;;;;;;;10.43;3.75;;;;;;;15.77;67.24;99191.97;5010508;28;20041;-73
2021/07/29 05:34:33;;;;;;;17.42;3.33;;;;;;;15.79;67.49;99190.88;5010812;28;20042;-73
2021/07/29 05:36:58;;;;;;;6.95;2.33;;;;;;;15.85;67.50;99194.84;5009701;28;20072;-73
2021/07/29 05:39:23;;;;;;;7.72;2.90;;;;;;;15.88;67.51;99189.31;5009830;28;20037;-71
2021/07/29 05:41:49;;;;;;;6.97;2.70;;;;;;;15.90;67.54;99192.69;5010938;28;20041;-72
2021/07/29 05:44:14;;;;;;;7.10;3.38;;;;;;;15.94;67.53;99195.91;5010997;28;20040;-72
2021/07/29 05:46:39;;;;;;;7.43;3.28;;;;;;;15.96;67.18;99200.16;5008970;28;20034;-72
2021/07/29 05:49:05;;;;;;;5.55;2.20;;;;;;;15.96;67.52;99201.97;5009122;28;20038;-73
2021/07/29 05:51:30;;;;;;;7.72;3.13;;;;;;;15.94;67.48;99188.78;5005819;28;20026;-74
2021/07/29 05:53:55;;;;;;;6.38;2.90;;;;;;;15.91;67.32;99199.69;5007290;28;20070;-73
2021/07/29 05:56:21;;;;;;;4.65;3.00;;;;;;;15.93;67.71;99203.06;5002453;28;20108;-73
2021/07/29 05:58:46;;;;;;;4.43;2.72;;;;;;;15.99;67.54;99202.53;4988919;28;20038;-71
2021/07/29 06:01:11;;;;;;;7.97;3.83;;;;;;;15.99;67.58;99199.88;4972751;28;20112;-73
2021/07/29 06:03:37;;;;;;;10.50;2.83;;;;;;;16.03;67.21;99200.50;4989188;28;20128;-72
2021/07/29 06:06:02;;;;;;;9.95;3.78;;;;;;;16.08;67.34;99207.13;4990045;28;20039;-73
2021/07/29 06:08:27;;;;;;;7.50;3.33;;;;;;;16.11;66.79;99206.03;4988938;28;20525;-71
2021/07/29 06:10:53;;;;;;;8.45;3.03;;;;;;;16.16;66.92;99205.66;4990839;28;20050;-72
2021/07/29 06:13:18;;;;;;;5.50;3.33;;;;;;;16.16;66.58;99208.31;4990207;28;20431;-71
2021/07/29 06:15:44;;;;;;;7.38;3.30;;;;;;;16.22;65.96;99214.00;4990103;28;20038;-74
2021/07/29 06:18:11;;;;;;;8.52;3.05;;;;;;;16.23;66.51;99207.69;4990093;28;20534;-72
2021/07/29 06:20:37;;;;;;;8.93;4.93;;;;;;;16.28;65.66;99209.97;4990559;28;20501;-73
2021/07/29 06:23:03;;;;;;;5.65;3.35;;;;;;;16.32;65.71;99206.09;4988972;28;20038;-73
2021/07/29 06:25:28;;;;;;;10.63;4.18;;;;;;;16.31;65.80;99204.41;4990141;28;20031;-73
2021/07/29 06:27:53;;;;;;;9.05;3.63;;;;;;;16.34;66.11;99220.09;4989904;28;20471;-72
2021/07/29 06:30:19;;;;;;;8.30;3.88;;;;;;;16.38;66.22;99221.53;4990202;28;20038;-72
2021/07/29 06:32:44;;;;;;;8.57;2.67;;;;;;;16.42;65.84;99224.81;4990030;28;20495;-72
2021/07/29 06:35:11;;;;;;;10.32;2.78;;;;;;;16.44;65.73;99214.88;4989926;28;20466;-72
2021/07/29 06:37:37;;;;;;;8.20;3.22;;;;;;;16.51;65.60;99227.56;4989170;28;20418;-72
2021/07/29 06:40:03;;;;;;;12.57;3.80;;;;;;;16.53;65.74;99228.25;4990038;28;20038;-72
2021/07/29 06:42:29;;;;;;;11.23;3.47;;;;;;;16.56;65.83;99234.28;4972098;28;20434;-71
2021/07/29 06:44:56;;;;;;;14.57;4.15;;;;;;;16.61;65.27;99229.44;4990065;28;20039;-73
2021/07/29 06:47:21;;;;;;;9.98;2.75;;;;;;;16.65;64.98;99230.88;4993257;28;20550;-71
2021/07/29 06:49:47;;;;;;;9.00;3.33;;;;;;;16.62;64.91;99231.97;4989447;28;20133;-73
2021/07/29 06:52:13;;;;;;;9.52;3.58;;;;;;;16.63;65.08;99231.00;4989660;28;20485;-74
2021/07/29 06:54:39;;;;;;;11.65;3.30;;;;;;;16.68;64.45;99233.28;4989188;28;20034;-74
2021/07/29 06:57:05;;;;;;;9.57;3.10;;;;;;;16.70;64.57;99231.34;4989507;28;20038;-73
2021/07/29 06:59:31;;;;;;;14.43;3.35;;;;;;;16.70;64.00;99236.66;4988540;28;20034;-72
2021/07/29 07:01:56;;;;;;;6.63;3.40;;;;;;;16.75;64.20;99229.97;4989719;28;20509;-73
2021/07/29 07:04:22;;;;;;;7.45;2.38;;;;;;;16.76;63.65;99230.84;4991812;28;20049;-68
2021/07/29 07:06:47;;;;;;;12.55;3.60;;;;;;;16.84;63.58;99235.56;4993224;28;20046;-72
2021/07/29 07:09:12;;;;;;;7.93;3.10;;;;;;;16.82;63.95;99237.50;4993513;28;20065;-72
2021/07/29 07:11:38;;;;;;;6.47;3.08;;;;;;;16.73;63.72;99231.06;4992187;28;20067;-70
2021/07/29 07:14:05;;;;;;;8.93;3.42;;;;;;;16.75;63.92;99229.13;4993237;28;20035;-71
2021/07/29 07:16:31;;;;;;;4.90;2.95;;;;;;;16.80;63.47;99232.28;4992616;28;20410;-71
2021/07/29 07:18:57;;;;;;;9.43;3.00;;;;;;;16.95;63.97;99228.31;4990357;28;20038;-73
2021/07/29 07:21:23;;;;;;;13.55;3.97;;;;;;;17.08;62.61;99235.28;4993202;28;20530;-72
2021/07/29 07:23:48;;;;;;;7.10;3.75;;;;;;;17.28;61.34;99231.75;4992983;28;20080;-72
2021/07/29 07:26:20;;;;;;;11.98;3.72;;;;;;;17.64;60.06;99236.69;4990519;28;20026;-73
2021/07/29 07:28:46;;;;;;;10.73;3.53;;;;;;;17.83;59.36;99230.63;4993781;28;20516;-66
2021/07/29 07:31:12;;;;;;;6.82;2.80;;;;;;;18.29;58.43;99232.69;5009514;28;20041;-65
2021/07/29 07:33:38;;;;;;;4.22;2.17;;;;;;;18.39;57.62;99230.88;5009528;28;20042;-65
2021/07/29 07:36:03;;;;;;;10.27;3.25;;;;;;;18.56;57.39;99242.69;5011599;28;20033;-65
2021/07/29 07:38:29;;;;;;;8.15;2.97;;;;;;;18.59;57.19;99241.56;5011228;28;20044;-64
2021/07/29 07:40:54;;;;;;;7.68;3.40;;;;;;;19.15;55.75;99240.88;5012285;28;20052;-66
2021/07/29 07:43:19;;;;;;;16.15;3.03;;;;;;;19.44;54.28;99246.13;5011942;28;20045;-67
2021/07/29 07:45:45;;;;;;;5.90;2.47;;;;;;;19.34;53.91;99242.63;5012193;28;20046;-65
2021/07/29 07:48:10;;;;;;;10.20;2.72;;;;;;;19.22;54.25;99241.97;5012084;28;20030;-67
2021/07/29 07:50:40;;;;;;;10.60;3.47;;;;;;;19.01;53.87;99242.13;5006224;28;20034;-67
2021/07/29 07:53:05;;;;;;;7.43;2.97;;;;;;;19.11;53.45;99241.28;4992750;28;20045;-66
2021/07/29 07:55:32;;;;;;;6.25;2.15;;;;;;;19.23;53.79;99237.47;4992715;28;20034;-66
2021/07/29 07:57:57;;;;;;;7.30;2.55;;;;;;;19.25;52.67;99243.50;4995598;28;20121;-66
2021/07/29 08:00:23;;;;;;;7.63;2.17;;;;;;;19.56;51.71;99243.28;4996941;28;20128;-68
2021/07/29 08:02:48;;;;;;;11.55;4.70;;;;;;;19.61;51.69;99235.66;5008574;28;20113;-67
2021/07/29 08:05:14;;;;;;;9.02;2.78;;;;;;;19.70;51.89;99241.00;5012564;28;20037;-65
2021/07/29 08:07:39;;;;;;;12.23;3.22;;;;;;;19.91;50.20;99224.72;5012341;28;20037;-66
2021/07/29 08:10:05;;;;;;;8.50;2.20;;;;;;;20.14;49.74;99235.84;5015432;28;20494;-67
2021/07/29 08:12:30;;;;;;;6.60;2.38;;;;;;;20.31;48.98;99242.22;5013710;28;20041;-66
2021/07/29 08:14:55;;;;;;;7.35;2.65;;;;;;;20.19;49.78;99246.09;5006629;28;20030;-67
2021/07/29 08:17:21;;;;;;;4.88;2.97;;;;;;;19.81;50.59;99239.09;4994037;28;20039;-67
2021/07/29 08:19:46;;;;;;;8.80;2.65;;;;;;;19.60;53.13;99247.34;5005923;28;20483;-55
2021/07/29 08:22:12;;;;;;;5.00;2.67;;;;;;;19.71;51.26;99240.03;5006778;28;20037;-56
2021/07/29 08:24:37;;;;;;;6.32;2.42;;;;;;;19.93;50.98;99244.09;5006013;28;20038;-50
2021/07/29 08:27:02;;;;;;;7.32;2.50;;;;;;;19.86;49.94;99236.84;5006024;28;20044;-55
2021/07/29 08:29:31;;;;;;;8.52;2.40;;;;;;;20.10;49.52;99241.63;5005865;28;20111;-69
2021/07/29 08:32:00;;;;;;;6.40;2.40;;;;;;;19.85;49.23;99243.19;5006252;28;20037;-71
2021/07/29 08:34:25;;;;;;;9.07;2.38;;;;;;;19.57;50.08;99239.63;5005997;28;20045;-73
2021/07/29 08:36:51;;;;;;;8.48;3.20;;;;;;;19.50;49.53;99245.53;4987879;28;20089;-72
2021/07/29 08:39:16;;;;;;;7.32;2.28;;;;;;;19.39;50.56;99243.03;5005730;28;20737;-72
2021/07/29 08:41:42;;;;;;;6.68;2.58;;;;;;;19.25;51.29;99249.69;5005486;28;20050;-71
2021/07/29 08:44:07;;;;;;;8.20;2.42;;;;;;;19.15;51.23;99245.34;5005557;28;20030;-72
2021/07/29 08:46:35;;;;;;;4.38;2.10;;;;;;;18.92;51.81;99247.50;5005713;28;20068;-75
2021/07/29 08:49:02;;;;;;;4.88;2.35;;;;;;;18.86;52.80;99246.25;5005598;28;20501;-70
2021/07/29 08:51:28;;;;;;;8.27;2.92;;;;;;;18.74;53.56;99240.16;5005743;28;20046;-71
2021/07/29 08:53:57;;;;;;;6.38;2.38;;;;;;;18.60;53.65;99246.75;5006335;28;20126;-72
2021/07/29 08:56:26;;;;;;;4.70;2.38;;;;;;;18.58;53.55;99247.88;4986144;28;20105;-70
2021/07/29 08:58:53;;;;;;;7.65;2.55;;;;;;;18.82;52.81;99240.31;4984033;28;20173;-70
2021/07/29 09:01:18;;;;;;;7.45;2.90;;;;;;;19.17;52.07;99246.03;5001100;28;20774;-72
2021/07/29 09:03:52;;;;;;;8.00;2.55;;;;;;;19.46;51.12;99238.78;5005377;28;20037;-71
2021/07/29 09:06:17;;;;;;;6.88;2.90;;;;;;;19.71;50.04;99237.34;5004936;28;20038;-70
2021/07/29 09:08:47;;;;;;;7.82;3.03;;;;;;;19.89;49.33;99244.59;5005179;28;20045;-69
2021/07/29 09:11:37;;;;;;;7.30;2.22;;;;;;;20.17;48.56;99246.25;5004908;28;20042;-71
2021/07/29 09:14:04;;;;;;;7.22;2.55;;;;;;;20.38;48.41;99243.28;5004076;28;20390;-71
2021/07/29 09:16:37;;;;;;;18.35;3.63;;;;;;;20.56;48.92;99243.31;5004466;28;20083;-55
2021/07/29 09:19:02;;;;;;;4.32;2.47;;;;;;;20.90;47.02;99247.16;5004538;28;20034;-52
2021/07/29 09:21:28;;;;;;;11.40;2.90;;;;;;;20.83;45.96;99246.91;5005278;28;20038;-55
2021/07/29 09:24:04;;;;;;;10.85;2.85;;;;;;;20.68;46.32;99251.97;5005292;28;20126;-56
2021/07/29 09:26:57;;;;;;;11.38;2.85;;;;;;;20.58;47.01;99257.41;5004258;28;20033;-56
2021/07/29 09:29:24;;;;;;;7.50;2.45;;;;;;;20.56;46.93;99255.88;5004665;28;20124;-57
2021/07/29 09:32:05;;;;;;;13.73;3.30;;;;;;;20.64;46.81;99258.63;5004259;28;20407;-56
2021/07/29 09:34:47;;;;;;;5.65;2.45;;;;;;;20.55;47.79;99262.22;5004713;28;20128;-58
2021/07/29 09:37:14;;;;;;;9.73;3.55;;;;;;;20.50;47.54;99253.78;5003633;28;20045;-57
2021/07/29 09:39:40;;;;;;;8.20;3.22;;;;;;;20.49;47.43;99265.47;5002885;28;20060;-71
2021/07/29 09:42:23;;;;;;;6.45;2.72;;;;;;;21.76;45.08;99266.03;5004346;28;20494;-72
2021/07/29 09:44:50;;;;;;;5.90;2.90;;;;;;;22.32;43.96;99260.22;5002158;28;20049;-71
2021/07/29 09:47:23;;;;;;;6.80;3.33;;;;;;;23.19;41.35;99256.13;5007156;28;20034;-71
2021/07/29 09:49:50;;;;;;;10.07;4.20;;;;;;;24.05;39.18;99259.13;5004288;28;20045;-73
2021/07/29 09:52:16;;;;;;;2.92;2.08;;;;;;;23.62;39.64;99255.88;5004184;28;20429;-72
2021/07/29 09:54:44;;;;;;;5.20;2.45;;;;;;;22.84;41.80;99257.25;5003543;28;20124;-71
2021/07/29 09:57:10;;;;;;;7.55;2.97;;;;;;;23.55;40.33;99255.72;5004720;28;20029;-71
2021/07/29 09:59:37;;;;;;;8.05;3.25;;;;;;;24.23;37.34;99250.78;5004585;28;20676;-71
2021/07/29 10:02:03;;;;;;;9.23;3.45;;;;;;;25.04;36.12;99247.53;5002667;28;20128;-72
2021/07/29 10:04:42;;;;;;;5.40;3.20;;;;;;;25.56;33.65;99250.44;5004911;28;20044;-71
2021/07/29 10:07:19;;;;;;;8.45;3.40;;;;;;;25.98;32.99;99240.88;5003861;28;20490;-71
2021/07/29 10:09:47;;;;;;;7.00;2.53;;;;;;;26.32;33.01;99238.38;4996112;28;20052;-72
2021/07/29 10:12:24;;;;;;;7.10;2.83;;;;;;;26.95;31.14;99227.78;5015377;28;20153;-72
2021/07/29 10:14:52;;;;;;;5.85;2.50;;;;;;;26.06;32.27;99246.16;5002416;28;20048;-72
2021/07/29 10:17:39;;;;;;;8.13;2.95;;;;;;;25.60;33.52;99246.34;5003278;28;20506;-72
2021/07/29 10:20:14;;;;;;;8.63;2.67;;;;;;;25.12;33.82;99243.09;4984194;28;20669;-70
2021/07/29 10:22:40;;;;;;;4.85;3.05;;;;;;;25.68;33.16;99239.00;4983930;28;20034;-70
2021/07/29 10:25:05;;;;;;;6.97;2.58;;;;;;;25.63;33.32;99244.13;4983296;28;20045;-71
2021/07/29 10:27:31;;;;;;;6.07;2.45;;;;;;;24.84;34.30;99254.44;4984686;28;20038;-70
2021/07/29 10:30:18;;;;;;;8.68;3.53;;;;;;;23.87;36.18;99245.88;4967154;28;20089;-70
2021/07/29 10:32:48;;;;;;;3.63;1.92;;;;;;;24.06;36.94;99248.16;4983838;28;20038;-72
2021/07/29 10:35:39;;;;;;;6.90;2.47;;;;;;;24.48;36.46;99256.91;4983909;28;20034;-72
2021/07/29 10:38:04;;;;;;;7.72;3.10;;;;;;;23.88;37.41;99245.72;4985978;28;20121;-72
2021/07/29 10:40:40;;;;;;;9.55;3.05;;;;;;;24.10;37.03;99256.75;4987557;28;20054;-71
2021/07/29 10:43:24;;;;;;;5.53;2.80;;;;;;;24.43;37.10;99243.91;4988180;28;20406;-72
2021/07/29 10:45:54;;;;;;;6.47;2.60;;;;;;;24.08;37.63;99248.84;4987844;28;20050;-74
2021/07/29 10:48:44;;;;;;;9.98;3.20;;;;;;;23.21;39.12;99246.03;4987714;28;20034;-72
2021/07/29 10:51:12;;;;;;;6.65;2.80;;;;;;;23.12;39.90;99236.28;4987682;28;20491;-71
2021/07/29 10:53:40;;;;;;;4.50;2.35;;;;;;;24.23;37.94;99237.31;4987648;28;20125;-71
2021/07/29 10:56:08;;;;;;;9.80;3.45;;;;;;;24.35;35.77;99238.59;4988663;28;20042;-71
2021/07/29 10:58:40;;;;;;;8.05;3.38;;;;;;;23.48;36.59;99243.94;4989268;28;20134;-73
2021/07/29 11:01:06;;;;;;;7.95;3.08;;;;;;;23.07;37.54;99238.66;4985536;28;20038;-73
2021/07/29 11:03:32;;;;;;;9.75;3.25;;;;;;;23.53;36.65;99247.84;4986812;28;20503;-71
2021/07/29 11:06:09;;;;;;;7.13;2.50;;;;;;;23.79;36.26;99230.59;4988433;28;20053;-72
2021/07/29 11:08:35;;;;;;;7.97;3.42;;;;;;;24.24;37.99;99238.97;4991035;28;20046;-56
2021/07/29 11:11:02;;;;;;;7.38;2.90;;;;;;;24.21;37.66;99241.00;4987707;28;20034;-54
2021/07/29 11:13:29;;;;;;;9.98;2.85;;;;;;;24.06;36.99;99247.31;4993234;28;20492;-52
2021/07/29 11:15:57;;;;;;;7.13;3.67;;;;;;;23.91;36.62;99239.97;5005336;28;20038;-52
2021/07/29 11:18:23;;;;;;;9.60;3.42;;;;;;;23.74;37.00;99247.28;5007132;28;20030;-50
2021/07/29 11:20:49;;;;;;;8.23;3.13;;;;;;;23.76;36.91;99242.56;5007067;28;20045;-52
2021/07/29 11:23:32;;;;;;;5.25;2.83;;;;;;;23.64;37.35;99249.31;5006100;28;20042;-52
2021/07/29 11:26:03;;;;;;;4.32;2.40;;;;;;;23.57;37.49;99251.84;5006807;28;20030;-50
2021/07/29 11:28:29;;;;;;;6.35;2.92;;;;;;;23.49;38.68;99261.78;5006604;28;20038;-50
2021/07/29 11:30:54;;;;;;;9.77;3.60;;;;;;;23.54;38.12;99254.03;5006443;28;20034;-52
2021/07/29 11:33:25;;;;;;;8.82;2.90;;;;;;;23.49;38.30;99256.41;5006053;28;20034;-52